Time;durP1;ratioP1;P1;durP2;ratioP2;P2;SDS_P1;SDS_P2;PMS_P1;PMS_P2;Temp;Humidity;BMP_temperature;BMP_pressure;BME280_temperature;BME280_humidity;BME280_pressure;Samples;Min_cycle;Max_cycle;Signal;HPM_P1;HPM_P2
2023/03/09 00:00:55;;;;;;;2.35;0.70;;;;;;;9.86;100.00;97859.00;20790099;28;20504;-70
2023/03/09 00:10:57;;;;;;;1.60;0.70;;;;;;;9.89;100.00;97823.09;20803249;28;20156;-72
2023/03/09 00:20:58;;;;;;;3.85;0.60;;;;;;;9.65;100.00;97858.38;20788279;28;20073;-73
2023/03/09 00:30:59;;;;;;;3.20;0.80;;;;;;;9.46;100.00;97888.06;20782747;28;20060;-73
2023/03/09 00:41:03;;;;;;;3.17;0.70;;;;;;;9.29;100.00;97890.69;20782295;28;20177;-74
2023/03/09 00:51:04;;;;;;;2.28;0.70;;;;;;;9.17;100.00;97893.91;20782310;28;20065;-74
2023/03/09 01:01:05;;;;;;;1.98;0.80;;;;;;;9.22;100.00;97923.25;20796781;28;20493;-75
2023/03/09 01:11:07;;;;;;;4.60;1.15;;;;;;;9.44;100.00;97923.88;20798777;28;20049;-77
2023/03/09 01:21:08;;;;;;;2.55;0.80;;;;;;;9.63;100.00;97922.91;20798236;28;20050;-78
2023/03/09 01:31:10;;;;;;;3.15;0.82;;;;;;;9.82;100.00;97909.72;20805599;28;20469;-76
2023/03/09 01:41:11;;;;;;;3.63;0.98;;;;;;;9.96;100.00;97904.63;20804132;28;20049;-75
2023/03/09 01:51:12;;;;;;;3.72;0.93;;;;;;;9.92;100.00;97903.97;20805331;28;20045;-79
2023/03/09 02:01:14;;;;;;;4.50;1.20;;;;;;;10.14;100.00;97894.97;20803919;28;20100;-78
2023/03/09 02:11:15;;;;;;;3.25;0.70;;;;;;;10.10;100.00;97923.03;20801828;28;20486;-72
2023/03/09 02:21:16;;;;;;;2.22;0.50;;;;;;;10.31;100.00;97946.41;20802259;28;20049;-72
2023/03/09 02:31:17;;;;;;;4.20;0.80;;;;;;;9.87;100.00;98020.09;20806566;28;20049;-73
2023/03/09 02:41:19;;;;;;;2.40;0.40;;;;;;;9.47;100.00;98056.91;20801057;28;20041;-74
2023/03/09 02:51:20;;;;;;;1.65;0.30;;;;;;;9.29;100.00;98085.69;20800300;28;20057;-73
2023/03/09 03:01:21;;;;;;;2.33;0.47;;;;;;;9.22;100.00;98124.28;20797695;28;20107;-73
2023/03/09 03:11:23;;;;;;;2.58;0.40;;;;;;;9.24;100.00;98145.94;20798277;28;20050;-75
2023/03/09 03:21:24;;;;;;;3.42;0.65;;;;;;;9.19;100.00;98153.16;20812613;28;20076;-75
2023/03/09 03:31:25;;;;;;;3.35;0.70;;;;;;;9.21;100.00;98165.22;20813380;28;20088;-75
2023/03/09 03:41:26;;;;;;;4.13;0.73;;;;;;;9.19;100.00;98221.88;20813197;28;20053;-75
2023/03/09 03:51:28;;;;;;;2.78;0.70;;;;;;;9.30;100.00;98255.34;20812543;28;20501;-75
2023/03/09 04:01:29;;;;;;;4.20;1.00;;;;;;;9.32;100.00;98278.78;20810081;28;20168;-76
2023/03/09 04:11:30;;;;;;;7.53;1.88;;;;;;;9.36;100.00;98316.91;20810349;28;20061;-76
2023/03/09 04:21:32;;;;;;;5.38;1.17;;;;;;;9.39;100.00;98328.06;20807573;28;20091;-75
2023/03/09 04:31:33;;;;;;;3.75;1.13;;;;;;;9.33;100.00;98349.22;20806431;28;20061;-76
2023/03/09 04:41:34;;;;;;;6.60;1.40;;;;;;;9.04;100.00;98368.75;20807697;28;20061;-76
2023/03/09 04:51:35;;;;;;;9.02;1.50;;;;;;;8.91;100.00;98402.34;20805399;28;20441;-78
2023/03/09 05:01:37;;;;;;;9.38;1.50;;;;;;;8.81;100.00;98424.50;20804528;28;20057;-76
2023/03/09 05:11:38;;;;;;;7.43;1.75;;;;;;;8.75;100.00;98450.84;20804447;28;20099;-78
2023/03/09 05:21:39;;;;;;;7.38;1.25;;;;;;;8.93;100.00;98438.81;20802999;28;20099;-77
2023/03/09 05:31:41;;;;;;;9.48;1.85;;;;;;;9.07;100.00;98441.72;20803014;28;20563;-77
2023/03/09 05:41:42;;;;;;;10.07;1.83;;;;;;;9.16;100.00;98457.00;20799419;28;20065;-75
2023/03/09 05:51:47;;;;;;;10.20;2.85;;;;;;;9.10;100.00;98454.66;20799779;28;20518;-75
2023/03/09 06:01:48;;;;;;;12.70;1.77;;;;;;;9.28;100.00;98466.09;20798938;28;20053;-76
2023/03/09 06:11:49;;;;;;;9.73;2.10;;;;;;;9.36;100.00;98466.63;20797559;28;20212;-75
2023/03/09 06:21:50;;;;;;;8.63;1.90;;;;;;;9.24;100.00;98473.19;20799032;28;20068;-75
2023/03/09 06:31:52;;;;;;;11.77;1.63;;;;;;;9.37;100.00;98486.59;20797767;28;20069;-78
2023/03/09 06:41:53;;;;;;;9.82;2.60;;;;;;;9.51;100.00;98493.88;20796583;28;20049;-75
2023/03/09 06:51:54;;;;;;;10.70;2.72;;;;;;;9.59;100.00;98511.84;20804419;28;20084;-73
2023/03/09 07:01:56;;;;;;;10.80;2.58;;;;;;;9.49;100.00;98530.50;20810767;28;20065;-74
2023/03/09 07:11:57;;;;;;;13.27;1.85;;;;;;;9.66;100.00;98549.84;20812190;28;20045;-74
2023/03/09 07:21:58;;;;;;;8.80;1.85;;;;;;;9.80;100.00;98578.88;20813470;28;20062;-76
2023/03/09 07:32:00;;;;;;;11.52;2.33;;;;;;;9.95;100.00;98604.38;20813750;28;20108;-76
2023/03/09 07:42:01;;;;;;;9.77;2.10;;;;;;;9.96;100.00;98605.22;20813714;28;20088;-76
2023/03/09 07:52:03;;;;;;;10.75;1.73;;;;;;;10.05;100.00;98625.75;20807824;28;20413;-76
2023/03/09 08:02:06;;;;;;;9.85;1.50;;;;;;;10.06;100.00;98651.00;20803351;28;20554;-77
2023/03/09 08:12:08;;;;;;;13.02;2.30;;;;;;;10.07;100.00;98663.16;20804608;28;20049;-77
2023/03/09 08:22:09;;;;;;;11.85;2.10;;;;;;;10.15;100.00;98696.81;20803595;28;20049;-77
2023/03/09 08:32:10;;;;;;;15.32;4.43;;;;;;;10.23;100.00;98702.59;20804494;28;20561;-78
2023/03/09 08:42:12;;;;;;;12.52;3.20;;;;;;;10.31;100.00;98726.72;20804283;28;20062;-77
2023/03/09 08:52:13;;;;;;;12.30;1.75;;;;;;;10.38;100.00;98738.63;20802118;28;20053;-77
2023/03/09 09:02:14;;;;;;;10.07;1.83;;;;;;;10.53;100.00;98750.19;20797793;28;20052;-77
2023/03/09 09:12:16;;;;;;;6.55;1.60;;;;;;;10.62;100.00;98769.91;20755039;28;20050;-78
2023/03/09 09:22:17;;;;;;;13.07;2.28;;;;;;;10.46;100.00;98791.50;20798579;28;20049;-77
2023/03/09 09:32:18;;;;;;;10.98;1.90;;;;;;;10.56;100.00;98806.81;20788988;28;20518;-76
2023/03/09 09:42:20;;;;;;;13.15;2.45;;;;;;;10.58;100.00;98826.75;20798457;28;20524;-77
2023/03/09 09:52:21;;;;;;;11.95;2.00;;;;;;;10.52;100.00;98833.09;20798421;28;20060;-77
2023/03/09 10:02:22;;;;;;;10.90;2.35;;;;;;;10.88;100.00;98837.75;20811472;28;20136;-78
2023/03/09 10:12:24;;;;;;;9.40;2.08;;;;;;;11.44;100.00;98842.28;20801155;28;20406;-77
2023/03/09 10:22:26;;;;;;;10.82;2.60;;;;;;;11.08;100.00;98868.31;20796403;28;20747;-72
2023/03/09 10:32:27;;;;;;;9.45;2.50;;;;;;;11.12;100.00;98869.91;20789303;28;20140;-75
2023/03/09 10:42:29;;;;;;;13.80;2.70;;;;;;;10.85;100.00;98882.38;20785411;28;20053;-74
2023/03/09 10:52:30;;;;;;;8.90;1.80;;;;;;;10.83;100.00;98871.13;20795783;28;20119;-73
2023/03/09 11:02:32;;;;;;;12.43;1.92;;;;;;;10.92;100.00;98869.88;20793642;28;20419;-74
2023/03/09 11:12:33;;;;;;;7.47;1.38;;;;;;;11.38;100.00;98875.78;20791867;28;20533;-74
2023/03/09 11:22:35;;;;;;;6.78;1.60;;;;;;;11.71;100.00;98887.41;20793184;28;20517;-74
2023/03/09 11:32:36;;;;;;;5.70;1.52;;;;;;;11.64;100.00;98892.97;20791944;28;20288;-73
2023/03/09 11:42:37;;;;;;;41.08;13.68;;;;;;;11.90;100.00;98871.72;20808006;28;20623;-73
2023/03/09 11:52:39;;;;;;;7.93;1.15;;;;;;;11.86;100.00;98879.81;20805858;28;20068;-73
2023/03/09 12:02:40;;;;;;;6.75;1.17;;;;;;;11.65;100.00;98884.22;20804741;28;20601;-72
2023/03/09 12:12:41;;;;;;;8.02;1.40;;;;;;;11.50;100.00;98885.75;20804934;28;20058;-73
2023/03/09 12:22:42;;;;;;;7.38;1.27;;;;;;;11.77;100.00;98881.03;20804907;28;20143;-73
2023/03/09 12:32:44;;;;;;;9.73;1.67;;;;;;;11.94;100.00;98873.31;20806541;28;20049;-73
2023/03/09 12:42:45;;;;;;;8.88;1.70;;;;;;;12.17;100.00;98879.25;20803830;28;20057;-73
2023/03/09 12:52:46;;;;;;;10.13;1.73;;;;;;;12.07;100.00;98858.72;20802697;28;20519;-73
2023/03/09 13:02:48;;;;;;;7.30;2.33;;;;;;;12.29;100.00;98844.56;20800362;28;20151;-73
2023/03/09 13:12:49;;;;;;;9.10;1.70;;;;;;;12.36;100.00;98838.13;20788808;28;20092;-73
2023/03/09 13:22:50;;;;;;;7.28;1.58;;;;;;;12.50;100.00;98846.19;20765121;28;20107;-74
2023/03/09 13:33:07;;;;;;;6.93;1.48;;;;;;;12.35;100.00;98852.13;20797429;28;20457;-73
2023/03/09 13:43:08;;;;;;;9.07;1.67;;;;;;;12.00;100.00;98846.78;20789921;28;20497;-73
2023/03/09 13:53:10;;;;;;;8.57;1.60;;;;;;;11.48;100.00;98850.88;20788111;28;20060;-74
2023/03/09 14:03:11;;;;;;;6.47;1.63;;;;;;;11.80;100.00;98828.47;20790787;28;20568;-73
2023/03/09 14:13:15;;;;;;;9.25;1.70;;;;;;;12.07;100.00;98815.84;20776060;28;20548;-73
2023/03/09 14:23:16;;;;;;;7.80;1.40;;;;;;;12.45;100.00;98795.63;20792776;28;20055;-73
2023/03/09 14:33:18;;;;;;;10.55;2.10;;;;;;;12.36;100.00;98813.63;20787400;28;20481;-75
2023/03/09 14:43:19;;;;;;;10.57;1.85;;;;;;;12.09;100.00;98814.03;20787391;28;20057;-75
2023/03/09 14:53:21;;;;;;;10.27;1.75;;;;;;;12.10;100.00;98799.13;20786416;28;20052;-74
2023/03/09 15:03:22;;;;;;;10.45;2.00;;;;;;;12.46;100.00;98780.78;20780170;28;20486;-74
2023/03/09 15:13:23;;;;;;;9.80;2.47;;;;;;;12.47;100.00;98778.06;20800197;28;20056;-75
2023/03/09 15:23:24;;;;;;;10.73;2.25;;;;;;;12.48;100.00;98763.16;20806713;28;20557;-76
2023/03/09 15:33:26;;;;;;;10.98;1.70;;;;;;;12.46;100.00;98750.13;20801563;28;20461;-73
2023/03/09 15:43:27;;;;;;;8.98;1.63;;;;;;;12.67;100.00;98724.53;20794612;28;20049;-72
2023/03/09 15:53:29;;;;;;;9.32;1.90;;;;;;;12.80;100.00;98723.00;20798634;28;20058;-72
2023/03/09 16:03:31;;;;;;;12.10;2.25;;;;;;;12.72;100.00;98705.94;20802134;28;20060;-73
2023/03/09 16:13:32;;;;;;;9.75;3.05;;;;;;;12.69;100.00;98706.06;20800124;28;20402;-73
2023/03/09 16:23:33;;;;;;;11.25;3.30;;;;;;;12.66;100.00;98693.97;20794854;28;20101;-74
2023/03/09 16:33:35;;;;;;;10.05;2.70;;;;;;;12.68;100.00;98688.63;20796170;28;20068;-73
2023/03/09 16:43:36;;;;;;;10.70;3.00;;;;;;;12.54;100.00;98679.69;20794488;28;20053;-73
2023/03/09 16:53:38;;;;;;;12.52;2.88;;;;;;;12.26;100.00;98688.13;20795360;28;20111;-74
2023/03/09 17:03:39;;;;;;;10.48;3.50;;;;;;;12.01;100.00;98683.22;20793901;28;20156;-74
2023/03/09 17:13:40;;;;;;;13.82;2.55;;;;;;;11.92;100.00;98670.56;20788525;28;20064;-74
2023/03/09 17:23:42;;;;;;;12.95;3.53;;;;;;;11.63;100.00;98653.56;20781797;28;20068;-74
2023/03/09 17:33:43;;;;;;;11.07;2.78;;;;;;;11.44;100.00;98639.66;20785331;28;20049;-74
2023/03/09 17:43:44;;;;;;;14.88;3.50;;;;;;;11.15;100.00;98635.78;20787416;28;20157;-74
2023/03/09 17:53:46;;;;;;;8.57;3.00;;;;;;;10.93;100.00;98628.91;20790446;28;20069;-74
2023/03/09 18:03:47;;;;;;;15.48;3.55;;;;;;;10.82;100.00;98632.91;20782633;28;20058;-73
2023/03/09 18:13:48;;;;;;;13.25;3.55;;;;;;;10.58;100.00;98620.00;20787499;28;20099;-74
2023/03/09 18:23:50;;;;;;;14.05;4.28;;;;;;;10.35;100.00;98602.72;20785247;28;20049;-74
2023/03/09 18:33:51;;;;;;;11.98;3.47;;;;;;;10.21;100.00;98595.44;20782947;28;20056;-74
2023/03/09 18:43:53;;;;;;;15.18;3.63;;;;;;;10.17;100.00;98587.78;20795094;28;20053;-74
2023/03/09 18:53:54;;;;;;;20.02;5.35;;;;;;;9.98;100.00;98564.19;20795979;28;20057;-74
2023/03/09 19:03:58;;;;;;;12.45;4.63;;;;;;;9.82;100.00;98552.66;20796818;28;20715;-74
2023/03/09 19:13:59;;;;;;;11.20;4.60;;;;;;;9.75;100.00;98544.25;20798714;28;20076;-74
2023/03/09 19:24:01;;;;;;;15.23;6.80;;;;;;;9.82;100.00;98530.03;20794288;28;20062;-74
2023/03/09 19:34:02;;;;;;;20.45;6.80;;;;;;;9.75;100.00;98528.56;20802389;28;20057;-74
2023/03/09 19:44:03;;;;;;;25.10;10.02;;;;;;;9.92;100.00;98520.88;20800895;28;20104;-74
2023/03/09 19:54:05;;;;;;;12.77;5.20;;;;;;;9.93;100.00;98500.78;20795475;28;20050;-74
2023/03/09 20:04:07;;;;;;;16.70;6.15;;;;;;;9.94;100.00;98490.25;20792904;28;20049;-74
2023/03/09 20:14:09;;;;;;;9.63;3.55;;;;;;;10.02;100.00;98485.56;20793378;28;20049;-74
2023/03/09 20:24:10;;;;;;;11.38;3.63;;;;;;;10.03;100.00;98476.78;20796799;28;20056;-74
2023/03/09 20:34:11;;;;;;;11.25;3.33;;;;;;;10.12;100.00;98459.00;20794165;28;20564;-75
2023/03/09 20:44:13;;;;;;;9.35;3.15;;;;;;;10.23;100.00;98446.28;20834123;23;20053;-74
2023/03/09 20:54:14;;;;;;;9.88;2.55;;;;;;;10.22;100.00;98434.13;20807434;28;20103;-73
2023/03/09 21:04:16;;;;;;;8.15;2.17;;;;;;;10.15;100.00;98430.94;20803507;28;20131;-71
2023/03/09 21:14:18;;;;;;;12.45;3.65;;;;;;;9.97;100.00;98409.09;20810633;28;20072;-71
2023/03/09 21:24:22;;;;;;;11.85;3.00;;;;;;;10.03;100.00;98405.34;20809920;28;20068;-71
2023/03/09 21:34:23;;;;;;;12.90;3.70;;;;;;;10.05;100.00;98389.59;20808467;28;20054;-71
2023/03/09 21:44:25;;;;;;;8.77;3.63;;;;;;;10.17;100.00;98389.88;20807339;28;20127;-72
2023/03/09 21:54:26;;;;;;;8.88;2.42;;;;;;;10.33;100.00;98353.41;20807025;28;20052;-71
2023/03/09 22:04:27;;;;;;;7.97;2.25;;;;;;;10.42;100.00;98349.53;20803882;28;20417;-72
2023/03/09 22:14:29;;;;;;;8.68;2.15;;;;;;;10.48;100.00;98363.13;20806381;28;20520;-72
2023/03/09 22:24:30;;;;;;;7.40;2.17;;;;;;;10.60;100.00;98376.56;20805040;28;20045;-72
2023/03/09 22:34:31;;;;;;;5.28;1.67;;;;;;;10.63;100.00;98363.31;20803865;28;20091;-70
2023/03/09 22:44:34;;;;;;;5.63;1.77;;;;;;;10.69;100.00;98331.66;20804889;28;20049;-70
2023/03/09 22:54:35;;;;;;;3.72;1.30;;;;;;;10.60;100.00;98332.94;20803835;28;20410;-70
2023/03/09 23:04:36;;;;;;;5.53;1.13;;;;;;;10.45;100.00;98320.59;20806035;28;20057;-69
2023/03/09 23:14:38;;;;;;;4.32;0.98;;;;;;;10.25;100.00;98309.34;20810298;28;20057;-69
2023/03/09 23:24:40;;;;;;;2.78;0.70;;;;;;;10.19;100.00;98290.41;20809003;28;20498;-70
2023/03/09 23:34:42;;;;;;;3.90;1.15;;;;;;;9.97;100.00;98267.94;20817487;28;20041;-70
2023/03/09 23:44:43;;;;;;;2.90;0.88;;;;;;;9.95;100.00;98243.59;20824478;28;20509;-70
2023/03/09 23:54:44;;;;;;;1.63;0.55;;;;;;;9.96;100.00;98224.38;20824890;28;20049;-70
